createdAt,value
2018-11-11T00:02:11.718Z,97863.75
2018-11-11T00:04:23.962Z,97866.47
2018-11-11T00:06:36.207Z,97868.91
2018-11-11T00:08:48.416Z,97862.41
2018-11-11T00:11:00.587Z,97857.88
2018-11-11T00:13:12.914Z,97862.97
2018-11-11T00:15:25.147Z,97865.52
2018-11-11T00:17:37.330Z,97868.79
2018-11-11T00:19:49.538Z,97873.24
2018-11-11T00:22:01.733Z,97877.72
2018-11-11T00:24:13.956Z,97883.67
2018-11-11T00:26:26.233Z,97886.85
2018-11-11T00:28:38.531Z,97893.70
2018-11-11T00:30:50.640Z,97889.02
2018-11-11T00:33:02.838Z,97892.45
2018-11-11T00:35:15.132Z,97890.79
2018-11-11T00:37:27.372Z,97889.56
2018-11-11T00:39:39.678Z,97882.45
2018-11-11T00:41:51.849Z,97884.50
2018-11-11T00:44:04.135Z,97873.86
2018-11-11T00:46:16.355Z,97879.06
2018-11-11T00:48:28.510Z,97872.92
2018-11-11T00:50:40.732Z,97873.86
2018-11-11T00:52:52.974Z,97877.65
2018-11-11T00:55:07.062Z,97866.27
2018-11-11T00:57:19.313Z,97872.02
2018-11-11T00:59:31.505Z,97870.72
2018-11-11T01:01:43.705Z,97873.91
2018-11-11T01:03:55.904Z,97877.56
2018-11-11T01:06:08.096Z,97880.75
2018-11-11T01:08:20.436Z,97870.72
2018-11-11T01:10:32.632Z,97870.21
2018-11-11T01:12:45.341Z,97865.64
2018-11-11T01:14:57.613Z,97864.30
2018-11-11T01:17:09.898Z,97864.85
2018-11-11T01:19:22.131Z,97863.23
2018-11-11T01:21:34.333Z,97857.02
2018-11-11T01:23:46.571Z,97856.42
2018-11-11T01:25:58.783Z,97860.95
2018-11-11T01:28:11.094Z,97863.94
2018-11-11T01:30:23.288Z,97855.67
2018-11-11T01:32:35.662Z,97856.81
2018-11-11T01:34:47.922Z,97856.07
2018-11-11T01:37:00.130Z,97854.57
2018-11-11T01:39:12.333Z,97854.99
2018-11-11T01:41:24.540Z,97855.23
2018-11-11T01:43:36.776Z,97852.39
2018-11-11T01:45:48.968Z,97850.16
2018-11-11T01:48:01.163Z,97849.88
2018-11-11T01:50:13.583Z,97849.41
2018-11-11T01:52:25.922Z,97848.73
2018-11-11T01:54:38.182Z,97851.33
2018-11-11T01:56:50.358Z,97847.23
2018-11-11T01:59:02.591Z,97838.41
2018-11-11T02:01:14.826Z,97835.53
2018-11-11T02:03:27.058Z,97845.84
2018-11-11T02:05:39.275Z,97853.73
2018-11-11T02:07:51.462Z,97852.08
2018-11-11T02:10:04.585Z,97846.52
2018-11-11T02:12:16.730Z,97857.16
2018-11-11T02:14:28.954Z,97848.33
2018-11-11T02:16:41.151Z,97855.18
2018-11-11T02:18:53.362Z,97850.72
2018-11-11T02:21:05.577Z,97852.14
2018-11-11T02:23:17.800Z,97854.06
2018-11-11T02:25:30.053Z,97858.11
2018-11-11T02:27:42.374Z,97851.65
2018-11-11T02:29:54.564Z,97854.87
2018-11-11T02:32:06.807Z,97854.87
2018-11-11T02:34:19.032Z,97854.66
2018-11-11T02:36:31.259Z,97841.10
2018-11-11T02:38:43.500Z,97842.20
2018-11-11T02:40:55.765Z,97848.48
2018-11-11T02:43:08.012Z,97850.49
2018-11-11T02:45:20.486Z,97854.55
2018-11-11T02:47:32.679Z,97862.14
2018-11-11T02:49:44.918Z,97865.00
2018-11-11T02:51:57.367Z,97861.16
2018-11-11T02:54:09.599Z,97858.73
2018-11-11T02:56:21.795Z,97848.95
2018-11-11T02:58:34.031Z,97850.81
2018-11-11T03:00:46.235Z,97851.90
2018-11-11T03:02:58.453Z,97842.20
2018-11-11T03:05:12.026Z,97844.92
2018-11-11T03:07:24.222Z,97837.00
2018-11-11T03:09:36.431Z,97834.87
2018-11-11T03:11:48.631Z,97837.47
2018-11-11T03:14:00.823Z,97830.28
2018-11-11T03:16:13.002Z,97830.28
2018-11-11T03:18:25.211Z,97831.84
2018-11-11T03:20:37.409Z,97843.20
2018-11-11T03:22:49.614Z,97842.98
2018-11-11T03:25:02.012Z,97845.81
2018-11-11T03:27:14.193Z,97835.89
2018-11-11T03:29:26.403Z,97828.81
2018-11-11T03:31:38.595Z,97835.33
2018-11-11T03:33:50.795Z,97835.67
2018-11-11T03:36:02.976Z,97842.17
2018-11-11T03:38:15.156Z,97854.85
2018-11-11T03:40:27.463Z,97853.08
2018-11-11T03:42:39.807Z,97863.75
2018-11-11T03:44:52.075Z,97863.27
2018-11-11T03:47:04.639Z,97864.58
2018-11-11T03:49:16.871Z,97875.67
2018-11-11T03:51:29.090Z,97869.28
2018-11-11T03:53:41.291Z,97870.59
2018-11-11T03:55:53.628Z,97864.34
2018-11-11T03:58:05.883Z,97855.59
2018-11-11T04:00:18.103Z,97854.38
2018-11-11T04:02:30.394Z,97847.17
2018-11-11T04:04:42.588Z,97829.78
2018-11-11T04:06:54.770Z,97829.66
2018-11-11T04:09:09.210Z,97851.64
2018-11-11T04:11:21.417Z,97854.45
2018-11-11T04:13:33.819Z,97847.33
2018-11-11T04:15:46.018Z,97834.45
2018-11-11T04:17:58.249Z,97832.20
2018-11-11T04:20:12.548Z,97844.02
2018-11-11T04:22:24.796Z,97844.02
2018-11-11T04:24:36.990Z,97850.17
2018-11-11T04:26:49.191Z,97847.31
2018-11-11T04:29:01.384Z,97836.31
2018-11-11T04:31:13.609Z,97828.50
2018-11-11T04:33:25.775Z,97831.70
2018-11-11T04:35:37.984Z,97829.24
2018-11-11T04:37:50.170Z,97825.34
2018-11-11T04:40:02.481Z,97822.86
2018-11-11T04:42:14.715Z,97827.80
2018-11-11T04:44:27.045Z,97814.44
2018-11-11T04:46:39.316Z,97799.52
2018-11-11T04:48:51.512Z,97801.72
2018-11-11T04:51:03.870Z,97799.52
2018-11-11T04:53:16.115Z,97809.42
2018-11-11T04:55:28.300Z,97813.73
2018-11-11T04:57:41.210Z,97819.00
2018-11-11T04:59:53.406Z,97821.02
2018-11-11T05:02:05.638Z,97821.34
2018-11-11T05:04:17.834Z,97801.08
2018-11-11T05:06:29.993Z,97791.45
2018-11-11T05:08:42.243Z,97783.48
2018-11-11T05:10:54.479Z,97799.36
2018-11-11T05:13:06.735Z,97803.02
2018-11-11T05:15:18.935Z,97809.31
2018-11-11T05:17:31.144Z,97813.03
2018-11-11T05:19:43.323Z,97811.97
2018-11-11T05:21:55.547Z,97815.13
2018-11-11T05:24:07.716Z,97819.84
2018-11-11T05:26:19.883Z,97818.88
2018-11-11T05:28:32.087Z,97819.90
2018-11-11T05:30:44.280Z,97817.66
2018-11-11T05:32:56.481Z,97810.45
2018-11-11T05:35:09.586Z,97811.75
2018-11-11T05:37:21.783Z,97798.22
2018-11-11T05:39:34.028Z,97796.48
2018-11-11T05:41:46.194Z,97797.66
2018-11-11T05:43:58.414Z,97796.37
2018-11-11T05:46:10.675Z,97796.56
2018-11-11T05:48:22.842Z,97814.39
2018-11-11T05:50:35.050Z,97818.56
2018-11-11T05:52:47.239Z,97823.33
2018-11-11T05:54:59.437Z,97826.59
2018-11-11T05:57:11.618Z,97837.26
2018-11-11T05:59:23.828Z,97841.42
2018-11-11T06:01:36.171Z,97843.39
2018-11-11T06:03:48.390Z,97853.17
2018-11-11T06:06:00.603Z,97861.02
2018-11-11T06:08:12.785Z,97864.33
2018-11-11T06:10:25.032Z,97864.44
2018-11-11T06:12:37.244Z,97858.14
2018-11-11T06:14:49.418Z,97857.58
2018-11-11T06:17:01.679Z,97851.22
2018-11-11T06:19:13.885Z,97850.05
2018-11-11T06:21:26.079Z,97844.71
2018-11-11T06:23:38.286Z,97846.91
2018-11-11T06:25:50.508Z,97850.99
2018-11-11T06:28:02.708Z,97873.48
2018-11-11T06:30:14.893Z,97875.20
2018-11-11T06:32:27.132Z,97881.91
2018-11-11T06:34:39.353Z,97889.00
2018-11-11T06:36:51.532Z,97898.39
2018-11-11T06:39:06.086Z,97910.77
2018-11-11T06:41:18.298Z,97921.28
2018-11-11T06:43:30.518Z,97930.17
2018-11-11T06:45:42.707Z,97928.41
2018-11-11T06:47:54.957Z,97936.47
2018-11-11T06:50:08.457Z,97947.97
2018-11-11T06:52:20.699Z,97957.07
2018-11-11T06:54:32.882Z,97959.00
2018-11-11T06:56:45.079Z,97961.80
2018-11-11T06:58:57.311Z,97968.66
2018-11-11T07:01:09.499Z,97983.11
2018-11-11T07:03:33.054Z,97998.35
2018-11-11T07:05:45.259Z,98007.09
2018-11-11T07:07:57.458Z,98019.36
2018-11-11T07:10:09.751Z,98034.05
2018-11-11T07:12:22.054Z,98043.16
2018-11-11T07:14:34.260Z,98044.21
2018-11-11T07:16:46.462Z,98052.09
2018-11-11T07:18:58.682Z,98061.14
2018-11-11T07:21:10.909Z,98072.84
2018-11-11T07:23:23.212Z,98081.27
2018-11-11T07:25:35.354Z,98081.02
2018-11-11T07:27:47.585Z,98082.21
2018-11-11T07:29:59.794Z,98078.31
2018-11-11T07:32:12.011Z,98085.92
2018-11-11T07:34:24.247Z,98083.87
2018-11-11T07:36:36.468Z,98085.17
2018-11-11T07:38:48.779Z,98073.67
2018-11-11T07:41:00.960Z,98072.42
2018-11-11T07:43:13.150Z,98079.39
2018-11-11T07:45:25.361Z,98083.56
2018-11-11T07:47:37.581Z,98087.73
2018-11-11T07:49:49.804Z,98082.86
2018-11-11T07:52:02.064Z,98082.08
2018-11-11T07:54:14.247Z,98090.32
2018-11-11T07:56:26.583Z,98085.11
2018-11-11T07:58:38.936Z,98086.84
2018-11-11T08:00:51.134Z,98091.65
2018-11-11T08:03:03.397Z,98086.25
2018-11-11T08:05:15.697Z,98104.62
2018-11-11T08:07:27.889Z,98107.94
2018-11-11T08:09:40.102Z,98112.94
2018-11-11T08:12:00.312Z,98119.09
2018-11-11T08:14:12.511Z,98110.65
2018-11-11T08:16:24.731Z,98119.64
2018-11-11T08:18:36.943Z,98113.88
2018-11-11T08:20:49.229Z,98114.36
2018-11-11T08:23:01.438Z,98103.95
2018-11-11T08:25:13.717Z,98103.98
2018-11-11T08:27:25.870Z,98099.19
2018-11-11T08:29:38.097Z,98102.97
2018-11-11T08:31:50.335Z,98102.41
2018-11-11T08:34:02.629Z,98103.72
2018-11-11T08:36:14.891Z,98107.62
2018-11-11T08:38:27.119Z,98106.36
2018-11-11T08:40:39.525Z,98119.01
2018-11-11T08:42:51.722Z,98115.15
2018-11-11T08:45:04.925Z,98119.21
2018-11-11T08:47:17.235Z,98120.98
2018-11-11T08:49:29.469Z,98126.94
2018-11-11T08:51:41.738Z,98127.92
2018-11-11T08:53:54.020Z,98128.91
2018-11-11T08:56:06.250Z,98124.80
2018-11-11T08:58:18.455Z,98123.50
2018-11-11T09:00:30.658Z,98124.72
2018-11-11T09:02:42.918Z,98132.84
2018-11-11T09:04:55.309Z,98129.91
2018-11-11T09:07:07.550Z,98131.80
2018-11-11T09:09:19.783Z,98137.56
2018-11-11T09:11:32.106Z,98133.59
2018-11-11T09:13:44.304Z,98132.16
2018-11-11T09:15:56.540Z,98135.33
2018-11-11T09:18:08.796Z,98132.11
2018-11-11T09:20:20.994Z,98134.00
2018-11-11T09:22:33.281Z,98129.72
2018-11-11T09:24:45.626Z,98131.01
2018-11-11T09:26:57.856Z,98134.30
2018-11-11T09:29:10.145Z,98132.38
2018-11-11T09:31:22.408Z,98136.77
2018-11-11T09:33:34.695Z,98140.18
2018-11-11T09:35:46.923Z,98143.05
2018-11-11T09:37:59.159Z,98146.87
2018-11-11T09:40:12.570Z,98141.39
2018-11-11T09:42:25.389Z,98142.57
2018-11-11T09:44:37.626Z,98146.48
2018-11-11T09:46:49.923Z,98154.09
2018-11-11T09:49:02.194Z,98151.70
2018-11-11T09:51:14.432Z,98159.77
2018-11-11T09:53:26.669Z,98158.46
2018-11-11T09:55:38.946Z,98161.30
2018-11-11T09:57:51.224Z,98170.08
2018-11-11T10:00:04.218Z,98163.23
2018-11-11T10:02:16.879Z,98164.66
2018-11-11T10:04:37.717Z,98160.52
2018-11-11T10:07:20.742Z,98160.14
2018-11-11T10:09:38.612Z,98156.13
2018-11-11T10:11:56.423Z,98149.13
2018-11-11T10:14:14.258Z,98156.48
2018-11-11T10:16:38.956Z,98166.09
2018-11-11T10:19:01.983Z,98165.74
2018-11-11T10:21:19.602Z,98166.25
2018-11-11T10:23:38.401Z,98164.97
2018-11-11T10:26:04.694Z,98162.55
2018-11-11T10:30:29.884Z,98161.72
2018-11-11T10:33:17.962Z,98158.79
2018-11-11T10:35:35.783Z,98154.30
2018-11-11T10:37:52.434Z,98145.75
2018-11-11T10:40:13.150Z,98152.05
2018-11-11T10:43:04.697Z,98157.30
2018-11-11T10:45:23.473Z,98157.28
2018-11-11T10:47:39.429Z,98158.48
2018-11-11T10:49:53.731Z,98153.62
2018-11-11T10:52:06.160Z,98148.27
2018-11-11T10:54:18.476Z,98142.68
2018-11-11T10:56:30.715Z,98136.27
2018-11-11T10:58:43.004Z,98138.16
2018-11-11T11:01:00.906Z,98137.92
2018-11-11T11:03:18.812Z,98133.66
2018-11-11T11:05:31.083Z,98133.53
2018-11-11T11:07:43.363Z,98139.59
2018-11-11T11:09:55.700Z,98139.22
2018-11-11T11:12:08.036Z,98131.61
2018-11-11T11:14:20.287Z,98130.55
2018-11-11T11:16:32.479Z,98127.08
2018-11-11T11:18:44.730Z,98127.91
2018-11-11T11:20:57.013Z,98129.08
2018-11-11T11:23:09.458Z,98126.09
2018-11-11T11:25:21.595Z,98120.82
2018-11-11T11:27:33.883Z,98114.27
2018-11-11T11:29:46.262Z,98120.03
2018-11-11T11:31:58.527Z,98120.84
2018-11-11T11:34:10.755Z,98117.64
2018-11-11T11:36:23.063Z,98115.06
2018-11-11T11:38:35.378Z,98112.62
2018-11-11T11:40:47.769Z,98104.09
2018-11-11T11:43:00.019Z,98112.78
2018-11-11T11:45:12.371Z,98108.25
2018-11-11T11:47:24.613Z,98109.48
2018-11-11T11:49:36.859Z,98109.55
2018-11-11T11:51:49.123Z,98116.20
2018-11-11T11:54:01.407Z,98108.69
2018-11-11T11:56:13.659Z,98105.04
2018-11-11T11:58:27.259Z,98110.37
2018-11-11T12:00:39.597Z,98110.54
2018-11-11T12:02:51.890Z,98117.52
2018-11-11T12:05:05.208Z,98122.84
2018-11-11T12:07:17.471Z,98121.70
2018-11-11T12:09:29.766Z,98115.55
2018-11-11T12:11:42.015Z,98118.96
2018-11-11T12:13:54.246Z,98120.76
2018-11-11T12:16:06.453Z,98117.00
2018-11-11T12:18:18.746Z,98118.34
2018-11-11T12:20:30.977Z,98116.58
2018-11-11T12:22:43.299Z,98122.76
2018-11-11T12:24:55.565Z,98118.06
2018-11-11T12:27:07.927Z,98120.54
2018-11-11T12:29:20.166Z,98116.13
2018-11-11T12:31:32.424Z,98119.56
2018-11-11T12:33:44.722Z,98116.35
2018-11-11T12:35:57.075Z,98118.74
2018-11-11T12:38:09.306Z,98109.23
2018-11-11T12:40:21.649Z,98105.55
2018-11-11T12:42:33.881Z,98109.23
2018-11-11T12:44:46.135Z,98106.34
2018-11-11T12:46:58.453Z,98116.69
2018-11-11T12:49:10.698Z,98115.64
2018-11-11T12:51:22.934Z,98115.52
2018-11-11T12:53:35.226Z,98119.72
2018-11-11T12:55:47.463Z,98125.35
2018-11-11T12:57:59.714Z,98125.52
2018-11-11T13:00:13.419Z,98126.09
2018-11-11T13:02:25.679Z,98129.66
2018-11-11T13:04:38.032Z,98131.59
2018-11-11T13:06:50.240Z,98135.18
2018-11-11T13:09:03.840Z,98140.28
2018-11-11T13:11:16.184Z,98136.69
2018-11-11T13:13:28.470Z,98140.05
2018-11-11T13:15:40.738Z,98139.13
2018-11-11T13:17:53.011Z,98133.89
2018-11-11T13:20:07.590Z,98144.03
2018-11-11T13:22:19.902Z,98146.33
2018-11-11T13:24:32.047Z,98155.41
2018-11-11T13:26:44.301Z,98151.83
2018-11-11T13:28:56.513Z,98151.84
2018-11-11T13:31:08.757Z,98155.57
2018-11-11T13:33:21.011Z,98154.99
2018-11-11T13:35:33.205Z,98157.13
2018-11-11T13:37:45.528Z,98162.02
2018-11-11T13:39:59.498Z,98157.61
2018-11-11T13:42:11.732Z,98158.78
2018-11-11T13:44:23.984Z,98167.03
2018-11-11T13:46:36.704Z,98173.34
2018-11-11T13:48:48.847Z,98178.83
2018-11-11T13:51:01.094Z,98179.45
2018-11-11T13:53:13.452Z,98181.93
2018-11-11T13:55:25.797Z,98180.66
2018-11-11T13:57:38.106Z,98190.28
2018-11-11T13:59:50.383Z,98189.83
2018-11-11T14:02:02.691Z,98185.42
2018-11-11T14:04:15.016Z,98184.84
2018-11-11T14:06:27.325Z,98187.08
2018-11-11T14:08:39.568Z,98178.19
2018-11-11T14:10:51.930Z,98176.03
2018-11-11T14:13:04.483Z,98174.86
2018-11-11T14:15:18.565Z,98179.37
2018-11-11T14:17:30.880Z,98175.82
2018-11-11T14:19:43.209Z,98179.37
2018-11-11T14:21:55.407Z,98175.72
2018-11-11T14:24:07.749Z,98175.59
2018-11-11T14:26:20.112Z,98180.62
2018-11-11T14:28:32.357Z,98182.17
2018-11-11T14:30:44.610Z,98181.45
2018-11-11T14:32:57.942Z,98187.65
2018-11-11T14:35:11.015Z,98178.25
2018-11-11T14:37:23.250Z,98195.40
2018-11-11T14:39:35.549Z,98184.45
2018-11-11T14:41:47.831Z,98188.96
2018-11-11T14:44:00.105Z,98171.61
2018-11-11T14:46:12.496Z,98166.27
2018-11-11T14:48:24.761Z,98167.71
2018-11-11T14:50:37.107Z,98167.81
2018-11-11T14:52:49.495Z,98171.02
2018-11-11T14:55:02.009Z,98168.02
2018-11-11T14:57:14.309Z,98165.16
2018-11-11T14:59:26.636Z,98161.47
2018-11-11T15:01:38.910Z,98157.30
2018-11-11T15:03:51.178Z,98159.09
2018-11-11T15:06:03.553Z,98163.50
2018-11-11T15:08:15.874Z,98167.53
2018-11-11T15:10:28.164Z,98164.34
2018-11-11T15:12:40.610Z,98162.93
2018-11-11T15:14:52.931Z,98157.73
2018-11-11T15:17:05.245Z,98161.97
2018-11-11T15:19:17.597Z,98157.83
2018-11-11T15:21:29.832Z,98152.02
2018-11-11T15:23:42.090Z,98149.29
2018-11-11T15:25:55.239Z,98148.84
2018-11-11T15:28:07.702Z,98138.75
2018-11-11T15:30:22.015Z,98143.49
2018-11-11T15:32:34.250Z,98138.39
2018-11-11T15:34:46.545Z,98137.69
2018-11-11T15:36:58.870Z,98134.23
2018-11-11T15:39:11.430Z,98140.77
2018-11-11T15:41:23.738Z,98136.50
2018-11-11T15:43:35.979Z,98135.43
2018-11-11T15:45:48.252Z,98139.95
2018-11-11T15:48:02.767Z,98155.39
2018-11-11T15:50:16.893Z,98143.63
2018-11-11T15:52:29.233Z,98145.06
2018-11-11T15:54:41.515Z,98140.65
2018-11-11T15:56:53.836Z,98139.45
2018-11-11T15:59:06.204Z,98137.78
2018-11-11T16:01:18.512Z,98134.13
2018-11-11T16:03:30.738Z,98146.11
2018-11-11T16:05:43.011Z,98160.57
2018-11-11T16:07:56.181Z,98161.02
2018-11-11T16:10:10.370Z,98166.45
2018-11-11T16:12:22.654Z,98163.23
2018-11-11T16:14:35.011Z,98166.26
2018-11-11T16:16:47.303Z,98169.56
2018-11-11T16:18:59.588Z,98179.97
2018-11-11T16:21:11.887Z,98176.14
2018-11-11T16:23:24.217Z,98181.10
2018-11-11T16:25:36.593Z,98188.92
2018-11-11T16:27:49.185Z,98184.05
2018-11-11T16:30:01.466Z,98184.95
2018-11-11T16:32:13.782Z,98194.09
2018-11-11T16:34:26.054Z,98202.01
2018-11-11T16:36:38.443Z,98204.95
2018-11-11T16:38:50.664Z,98208.60
2018-11-11T16:41:03.713Z,98213.59
2018-11-11T16:43:15.847Z,98220.95
2018-11-11T16:45:29.964Z,98226.56
2018-11-11T16:47:42.390Z,98225.13
2018-11-11T16:50:00.583Z,98223.95
2018-11-11T16:52:12.871Z,98225.13
2018-11-11T16:54:25.131Z,98231.78
2018-11-11T16:56:37.440Z,98230.69
2018-11-11T16:58:49.723Z,98229.33
2018-11-11T17:01:02.045Z,98233.81
2018-11-11T17:03:14.371Z,98239.48
2018-11-11T17:05:28.167Z,98241.95
2018-11-11T17:07:40.448Z,98247.31
2018-11-11T17:09:52.739Z,98250.88
2018-11-11T17:12:05.700Z,98255.55
2018-11-11T17:14:18.021Z,98260.62
2018-11-11T17:16:30.271Z,98251.34
2018-11-11T17:18:42.569Z,98260.11
2018-11-11T17:20:54.916Z,98259.11
2018-11-11T17:23:07.777Z,98261.69
2018-11-11T17:25:21.260Z,98259.94
2018-11-11T17:27:33.517Z,98257.66
2018-11-11T17:29:45.934Z,98258.28
2018-11-11T17:31:58.174Z,98264.38
2018-11-11T17:34:10.426Z,98257.62
2018-11-11T17:36:22.743Z,98260.61
2018-11-11T17:38:35.056Z,98266.86
2018-11-11T17:40:47.351Z,98270.41
2018-11-11T17:43:00.455Z,98267.06
2018-11-11T17:45:13.244Z,98267.74
2018-11-11T17:47:25.564Z,98276.16
2018-11-11T17:49:37.948Z,98277.90
2018-11-11T17:51:50.302Z,98268.42
2018-11-11T17:54:02.614Z,98281.92
2018-11-11T17:56:14.835Z,98284.06
2018-11-11T17:58:27.122Z,98281.81
2018-11-11T18:00:39.455Z,98277.75
2018-11-11T18:02:52.223Z,98278.13
2018-11-11T18:05:05.425Z,98270.70
2018-11-11T18:07:17.697Z,98272.28
2018-11-11T18:09:29.909Z,98274.20
2018-11-11T18:11:42.258Z,98274.62
2018-11-11T18:13:55.446Z,98265.33
2018-11-11T18:16:07.637Z,98266.22
2018-11-11T18:18:19.987Z,98271.81
2018-11-11T18:20:32.836Z,98279.58
2018-11-11T18:22:45.507Z,98277.17
2018-11-11T18:24:57.875Z,98276.19
2018-11-11T18:27:10.193Z,98279.09
2018-11-11T18:29:22.600Z,98282.58
2018-11-11T18:31:34.878Z,98272.07
2018-11-11T18:33:47.118Z,98278.34
2018-11-11T18:35:59.436Z,98283.62
2018-11-11T18:38:11.674Z,98284.36
2018-11-11T18:40:25.260Z,98279.02
2018-11-11T18:42:37.569Z,98280.36
2018-11-11T18:44:49.877Z,98285.94
2018-11-11T18:47:02.107Z,98280.24
2018-11-11T18:49:14.400Z,98285.11
2018-11-11T18:51:26.747Z,98288.20
2018-11-11T18:53:39.067Z,98284.98
2018-11-11T18:55:51.374Z,98284.42
2018-11-11T18:58:03.750Z,98281.69
2018-11-11T19:00:18.671Z,98278.51
2018-11-11T19:02:30.993Z,98284.08
2018-11-11T19:04:43.254Z,98280.91
2018-11-11T19:06:55.594Z,98285.26
2018-11-11T19:09:09.786Z,98293.95
2018-11-11T19:11:22.101Z,98290.56
2018-11-11T19:13:34.451Z,98301.73
2018-11-11T19:15:46.694Z,98306.14
2018-11-11T19:17:58.993Z,98310.11
2018-11-11T19:20:13.359Z,98311.15
2018-11-11T19:22:25.827Z,98322.07
2018-11-11T19:24:38.213Z,98326.59
2018-11-11T19:26:50.379Z,98333.94
2018-11-11T19:29:02.702Z,98345.99
2018-11-11T19:31:15.119Z,98347.30
2018-11-11T19:33:27.486Z,98352.30
2018-11-11T19:35:39.823Z,98354.98
2018-11-11T19:37:53.224Z,98352.85
2018-11-11T19:40:10.580Z,98355.73
2018-11-11T19:42:22.955Z,98343.98
2018-11-11T19:44:35.236Z,98345.64
2018-11-11T19:46:47.571Z,98341.02
2018-11-11T19:48:59.952Z,98335.27
2018-11-11T19:51:12.292Z,98336.08
2018-11-11T19:53:24.757Z,98335.20
2018-11-11T19:55:37.132Z,98345.97
2018-11-11T19:57:49.599Z,98348.10
2018-11-11T20:00:01.976Z,98355.80
2018-11-11T20:02:14.438Z,98356.48
2018-11-11T20:04:26.876Z,98352.34
2018-11-11T20:06:39.322Z,98367.31
2018-11-11T20:08:51.645Z,98366.62
2018-11-11T20:11:04.505Z,98365.00
2018-11-11T20:13:17.056Z,98357.79
2018-11-11T20:15:30.748Z,98356.50
2018-11-11T20:17:43.753Z,98367.69
2018-11-11T20:19:56.241Z,98358.34
2018-11-11T20:22:08.536Z,98358.83
2018-11-11T20:24:20.966Z,98361.84
2018-11-11T20:26:33.201Z,98359.77
2018-11-11T20:28:45.534Z,98361.30
2018-11-11T20:30:57.876Z,98360.73
2018-11-11T20:33:10.237Z,98358.00
2018-11-11T20:35:24.064Z,98368.70
2018-11-11T20:37:36.655Z,98373.58
2018-11-11T20:39:48.939Z,98377.28
2018-11-11T20:42:01.183Z,98377.63
2018-11-11T20:44:13.503Z,98382.85
2018-11-11T20:46:25.732Z,98382.11
2018-11-11T20:48:38.362Z,98389.86
2018-11-11T20:50:50.672Z,98400.45
2018-11-11T20:53:04.236Z,98389.88
2018-11-11T20:55:17.292Z,98402.25
2018-11-11T20:57:29.607Z,98402.03
2018-11-11T20:59:41.985Z,98399.42
2018-11-11T21:01:54.335Z,98406.78
2018-11-11T21:04:06.620Z,98408.82
2018-11-11T21:06:18.955Z,98409.20
2018-11-11T21:08:31.265Z,98415.52
2018-11-11T21:10:43.641Z,98420.01
2018-11-11T21:12:56.160Z,98416.66
2018-11-11T21:15:10.682Z,98411.08
2018-11-11T21:17:23.030Z,98414.14
2018-11-11T21:19:35.264Z,98420.88
2018-11-11T21:21:47.541Z,98418.35
2018-11-11T21:23:59.765Z,98418.91
2018-11-11T21:26:12.033Z,98422.36
2018-11-11T21:28:24.325Z,98418.44
2018-11-11T21:30:36.623Z,98417.83
2018-11-11T21:32:49.078Z,98419.82
2018-11-11T21:35:01.308Z,98411.86
2018-11-11T21:37:13.604Z,98416.13
2018-11-11T21:39:25.826Z,98424.09
2018-11-11T21:41:38.138Z,98422.73
2018-11-11T21:43:50.449Z,98426.52
2018-11-11T21:46:02.678Z,98419.27
2018-11-11T21:48:14.957Z,98419.36
2018-11-11T21:50:27.818Z,98419.22
2018-11-11T21:52:40.802Z,98423.26
2018-11-11T21:54:53.095Z,98421.22
2018-11-11T21:57:05.475Z,98420.12
2018-11-11T21:59:17.795Z,98420.50
2018-11-11T22:01:30.066Z,98418.72
2018-11-11T22:03:42.362Z,98418.81
2018-11-11T22:05:54.854Z,98414.89
2018-11-11T22:08:07.203Z,98415.30
2018-11-11T22:10:19.552Z,98420.38
2018-11-11T22:12:31.778Z,98418.81
2018-11-11T22:14:44.028Z,98420.59
2018-11-11T22:16:56.325Z,98428.91
2018-11-11T22:19:08.539Z,98427.59
2018-11-11T22:21:20.734Z,98429.11
2018-11-11T22:23:32.942Z,98430.20
2018-11-11T22:25:45.181Z,98424.98
2018-11-11T22:27:57.472Z,98418.81
2018-11-11T22:30:11.027Z,98418.72
2018-11-11T22:32:23.274Z,98411.93
2018-11-11T22:34:35.541Z,98418.81
2018-11-11T22:36:47.821Z,98415.70
2018-11-11T22:38:59.975Z,98413.56
2018-11-11T22:41:12.299Z,98425.31
2018-11-11T22:43:24.563Z,98430.69
2018-11-11T22:45:36.823Z,98435.05
2018-11-11T22:47:49.087Z,98430.52
2018-11-11T22:50:01.294Z,98434.24
2018-11-11T22:52:13.531Z,98438.95
2018-11-11T22:54:25.819Z,98437.66
2018-11-11T22:56:38.044Z,98442.31
2018-11-11T22:58:50.261Z,98446.46
2018-11-11T23:01:08.315Z,98445.36
2018-11-11T23:03:20.542Z,98435.88
2018-11-11T23:05:32.832Z,98441.09
2018-11-11T23:07:45.195Z,98435.99
2018-11-11T23:09:57.431Z,98432.70
2018-11-11T23:12:09.621Z,98434.72
2018-11-11T23:14:21.817Z,98440.68
2018-11-11T23:16:34.052Z,98436.80
2018-11-11T23:18:46.318Z,98437.86
2018-11-11T23:20:58.568Z,98436.09
2018-11-11T23:23:10.775Z,98430.54
2018-11-11T23:25:23.015Z,98435.28
2018-11-11T23:27:35.375Z,98441.87
2018-11-11T23:29:47.605Z,98444.95
2018-11-11T23:31:59.871Z,98445.90
2018-11-11T23:34:12.219Z,98450.70
2018-11-11T23:36:24.439Z,98447.46
2018-11-11T23:38:36.741Z,98442.77
2018-11-11T23:40:48.993Z,98443.09
2018-11-11T23:43:01.199Z,98441.88
2018-11-11T23:45:13.531Z,98451.37
2018-11-11T23:47:25.730Z,98447.86
2018-11-11T23:49:37.943Z,98449.76
2018-11-11T23:51:50.205Z,98450.34
2018-11-11T23:54:02.443Z,98446.28
2018-11-11T23:56:14.631Z,98438.30
2018-11-11T23:58:26.902Z,98444.63
